sensor_id;sensor_type;location;lat;lon;timestamp;pressure;altitude;pressure_sealevel;temperature;humidity
65329;BME280;51941;52.210;5.158;2022-08-03T00:00:28;101274.69;;;19.17;71.90
65329;BME280;51941;52.210;5.158;2022-08-03T00:02:54;101420.25;;;20.08;72.12
65329;BME280;51941;52.210;5.158;2022-08-03T00:05:21;101414.06;;;20.07;72.04
65329;BME280;51941;52.210;5.158;2022-08-03T00:07:49;101410.84;;;20.05;72.51
65329;BME280;51941;52.210;5.158;2022-08-03T00:10:16;101203.56;;;18.71;72.24
65329;BME280;51941;52.210;5.158;2022-08-03T00:12:43;101407.13;;;20.01;72.63
65329;BME280;51941;52.210;5.158;2022-08-03T00:15:10;101004.97;;;17.43;72.38
65329;BME280;51941;52.210;5.158;2022-08-03T00:17:38;101275.53;;;19.13;72.50
65329;BME280;51941;52.210;5.158;2022-08-03T00:20:05;101413.34;;;19.96;73.12
65329;BME280;51941;52.210;5.158;2022-08-03T00:22:33;101317.31;;;19.34;72.50
65329;BME280;51941;52.210;5.158;2022-08-03T00:25:00;101323.75;;;19.38;72.70
65329;BME280;51941;52.210;5.158;2022-08-03T00:27:27;101406.41;;;19.90;73.13
65329;BME280;51941;52.210;5.158;2022-08-03T00:29:53;101413.66;;;19.90;73.04
65329;BME280;51941;52.210;5.158;2022-08-03T00:32:20;101141.88;;;18.16;73.48
65329;BME280;51941;52.210;5.158;2022-08-03T00:34:49;101177.19;;;18.29;73.60
65329;BME280;51941;52.210;5.158;2022-08-03T00:37:16;101214.94;;;18.42;73.30
65329;BME280;51941;52.210;5.158;2022-08-03T00:39:43;101412.38;;;19.82;73.69
65329;BME280;51941;52.210;5.158;2022-08-03T00:42:11;101409.94;;;19.81;73.56
65329;BME280;51941;52.210;5.158;2022-08-03T00:44:39;101411.84;;;19.80;73.65
65329;BME280;51941;52.210;5.158;2022-08-03T00:47:06;101408.63;;;19.78;73.58
65329;BME280;51941;52.210;5.158;2022-08-03T00:49:33;101403.25;;;19.78;73.71
65329;BME280;51941;52.210;5.158;2022-08-03T00:52:01;101388.84;;;19.64;73.44
65329;BME280;51941;52.210;5.158;2022-08-03T00:54:28;101366.06;;;19.51;74.02
65329;BME280;51941;52.210;5.158;2022-08-03T00:56:55;101399.53;;;19.74;73.61
65329;BME280;51941;52.210;5.158;2022-08-03T00:59:22;101399.00;;;19.72;74.09
65329;BME280;51941;52.210;5.158;2022-08-03T01:01:49;101293.78;;;19.06;74.43
65329;BME280;51941;52.210;5.158;2022-08-03T01:04:15;101388.25;;;19.67;74.21
65329;BME280;51941;52.210;5.158;2022-08-03T01:06:48;101402.78;;;19.66;74.45
65329;BME280;51941;52.210;5.158;2022-08-03T01:09:24;101316.03;;;19.16;74.27
65329;BME280;51941;52.210;5.158;2022-08-03T01:11:56;101396.88;;;19.64;74.43
65329;BME280;51941;52.210;5.158;2022-08-03T01:14:31;101394.47;;;19.62;74.40
65329;BME280;51941;52.210;5.158;2022-08-03T01:17:04;101084.69;;;17.72;74.54
65329;BME280;51941;52.210;5.158;2022-08-03T01:19:42;101386.97;;;19.59;74.81
65329;BME280;51941;52.210;5.158;2022-08-03T01:22:22;101360.25;;;19.39;74.73
65329;BME280;51941;52.210;5.158;2022-08-03T01:24:58;101388.34;;;19.52;74.93
65329;BME280;51941;52.210;5.158;2022-08-03T01:27:33;101199.69;;;18.33;74.80
65329;BME280;51941;52.210;5.158;2022-08-03T01:30:08;101386.47;;;19.52;74.70
65329;BME280;51941;52.210;5.158;2022-08-03T01:32:41;101376.00;;;19.51;74.93
65329;BME280;51941;52.210;5.158;2022-08-03T01:35:14;101381.94;;;19.48;74.98
65329;BME280;51941;52.210;5.158;2022-08-03T01:37:46;101354.38;;;19.22;75.29
65329;BME280;51941;52.210;5.158;2022-08-03T01:40:16;101386.25;;;19.44;75.50
65329;BME280;51941;52.210;5.158;2022-08-03T01:42:45;101106.41;;;17.60;75.28
65329;BME280;51941;52.210;5.158;2022-08-03T01:45:15;101376.34;;;19.39;75.50
65329;BME280;51941;52.210;5.158;2022-08-03T01:47:44;101335.16;;;19.05;75.66
65329;BME280;51941;52.210;5.158;2022-08-03T01:50:12;101378.22;;;19.39;75.84
65329;BME280;51941;52.210;5.158;2022-08-03T01:52:43;101378.50;;;19.37;75.98
65329;BME280;51941;52.210;5.158;2022-08-03T01:55:13;101314.53;;;18.95;76.73
65329;BME280;51941;52.210;5.158;2022-08-03T01:57:43;101158.25;;;17.95;76.74
65329;BME280;51941;52.210;5.158;2022-08-03T02:00:13;101296.59;;;18.80;77.12
65329;BME280;51941;52.210;5.158;2022-08-03T02:02:42;101370.16;;;19.34;76.97
65329;BME280;51941;52.210;5.158;2022-08-03T02:05:10;101378.47;;;19.32;77.55
65329;BME280;51941;52.210;5.158;2022-08-03T02:07:39;101368.31;;;19.29;77.61
65329;BME280;51941;52.210;5.158;2022-08-03T02:10:08;101371.81;;;19.29;77.06
65329;BME280;51941;52.210;5.158;2022-08-03T02:12:38;101191.97;;;18.16;76.96
65329;BME280;51941;52.210;5.158;2022-08-03T02:15:06;101301.94;;;18.85;76.98
65329;BME280;51941;52.210;5.158;2022-08-03T02:17:35;101360.25;;;19.29;76.76
65329;BME280;51941;52.210;5.158;2022-08-03T02:20:03;101367.50;;;19.28;77.15
65329;BME280;51941;52.210;5.158;2022-08-03T02:22:32;101377.72;;;19.26;77.50
65329;BME280;51941;52.210;5.158;2022-08-03T02:24:59;101329.50;;;19.01;77.46
65329;BME280;51941;52.210;5.158;2022-08-03T02:27:26;101354.91;;;19.24;77.13
65329;BME280;51941;52.210;5.158;2022-08-03T02:29:59;101305.72;;;18.84;77.35
65329;BME280;51941;52.210;5.158;2022-08-03T02:32:29;101360.31;;;19.19;77.80
65329;BME280;51941;52.210;5.158;2022-08-03T02:34:59;101293.69;;;18.72;77.41
65329;BME280;51941;52.210;5.158;2022-08-03T02:37:30;101352.78;;;19.16;77.47
65329;BME280;51941;52.210;5.158;2022-08-03T02:40:00;101333.53;;;18.99;77.67
65329;BME280;51941;52.210;5.158;2022-08-03T02:42:28;101256.47;;;18.45;78.16
65329;BME280;51941;52.210;5.158;2022-08-03T02:44:57;101356.31;;;19.11;78.08
65329;BME280;51941;52.210;5.158;2022-08-03T02:47:27;101171.94;;;17.83;78.64
65329;BME280;51941;52.210;5.158;2022-08-03T02:49:57;101326.63;;;18.87;78.42
65329;BME280;51941;52.210;5.158;2022-08-03T02:52:27;101297.16;;;18.72;78.32
65329;BME280;51941;52.210;5.158;2022-08-03T02:54:57;101347.19;;;19.07;78.33
65329;BME280;51941;52.210;5.158;2022-08-03T02:57:25;101341.31;;;19.05;78.56
65329;BME280;51941;52.210;5.158;2022-08-03T02:59:54;101252.72;;;18.46;78.25
65329;BME280;51941;52.210;5.158;2022-08-03T03:02:23;101340.25;;;19.01;78.84
65329;BME280;51941;52.210;5.158;2022-08-03T03:04:51;101338.63;;;19.00;78.71
65329;BME280;51941;52.210;5.158;2022-08-03T03:07:20;100951.31;;;16.49;78.66
65329;BME280;51941;52.210;5.158;2022-08-03T03:09:48;101317.78;;;18.82;78.75
65329;BME280;51941;52.210;5.158;2022-08-03T03:12:16;101256.22;;;18.41;78.85
65329;BME280;51941;52.210;5.158;2022-08-03T03:14:43;101332.75;;;18.93;78.90
65329;BME280;51941;52.210;5.158;2022-08-03T03:17:11;101338.41;;;18.91;79.43
65329;BME280;51941;52.210;5.158;2022-08-03T03:19:42;101105.06;;;17.27;79.22
65329;BME280;51941;52.210;5.158;2022-08-03T03:22:11;101333.06;;;18.86;78.98
65329;BME280;51941;52.210;5.158;2022-08-03T03:24:41;101314.88;;;18.63;78.70
65329;BME280;51941;52.210;5.158;2022-08-03T03:27:08;101345.69;;;18.86;78.86
65329;BME280;51941;52.210;5.158;2022-08-03T03:29:35;101314.09;;;18.68;78.93
65329;BME280;51941;52.210;5.158;2022-08-03T03:32:03;101342.72;;;18.82;78.72
65329;BME280;51941;52.210;5.158;2022-08-03T03:34:30;101254.91;;;18.24;78.87
65329;BME280;51941;52.210;5.158;2022-08-03T03:36:57;101339.81;;;18.79;79.07
65329;BME280;51941;52.210;5.158;2022-08-03T03:39:24;101335.50;;;18.78;79.13
65329;BME280;51941;52.210;5.158;2022-08-03T03:41:52;101331.22;;;18.77;78.88
65329;BME280;51941;52.210;5.158;2022-08-03T03:44:19;101340.59;;;18.74;79.03
65329;BME280;51941;52.210;5.158;2022-08-03T03:46:46;101271.53;;;18.26;79.16
65329;BME280;51941;52.210;5.158;2022-08-03T03:49:13;101235.38;;;18.03;79.34
65329;BME280;51941;52.210;5.158;2022-08-03T03:51:40;101267.50;;;18.23;78.98
65329;BME280;51941;52.210;5.158;2022-08-03T03:54:07;101343.00;;;18.71;79.15
65329;BME280;51941;52.210;5.158;2022-08-03T03:56:34;101282.50;;;18.19;79.12
65329;BME280;51941;52.210;5.158;2022-08-03T03:59:02;101348.38;;;18.71;79.28
65329;BME280;51941;52.210;5.158;2022-08-03T04:01:29;101214.28;;;17.81;79.06
65329;BME280;51941;52.210;5.158;2022-08-03T04:03:56;101344.13;;;18.70;78.93
65329;BME280;51941;52.210;5.158;2022-08-03T04:06:43;101200.63;;;17.72;79.15
65329;BME280;51941;52.210;5.158;2022-08-03T04:09:28;101306.34;;;18.41;79.18
65329;BME280;51941;52.210;5.158;2022-08-03T04:12:15;101342.78;;;18.67;79.04
65329;BME280;51941;52.210;5.158;2022-08-03T04:14:45;101231.13;;;17.97;79.03
65329;BME280;51941;52.210;5.158;2022-08-03T04:17:14;101294.28;;;18.43;79.16
65329;BME280;51941;52.210;5.158;2022-08-03T04:19:44;101353.75;;;18.71;79.33
65329;BME280;51941;52.210;5.158;2022-08-03T04:22:16;101343.81;;;18.71;79.62
65329;BME280;51941;52.210;5.158;2022-08-03T04:24:49;101231.91;;;17.92;79.32
65329;BME280;51941;52.210;5.158;2022-08-03T04:27:20;101112.00;;;17.23;79.21
65329;BME280;51941;52.210;5.158;2022-08-03T04:29:50;101344.06;;;18.80;79.34
65329;BME280;51941;52.210;5.158;2022-08-03T04:32:19;101342.72;;;18.82;79.16
65329;BME280;51941;52.210;5.158;2022-08-03T04:34:47;101344.06;;;18.85;79.85
65329;BME280;51941;52.210;5.158;2022-08-03T04:37:24;101329.34;;;18.72;79.66
65329;BME280;51941;52.210;5.158;2022-08-03T04:39:52;101362.00;;;18.89;79.02
65329;BME280;51941;52.210;5.158;2022-08-03T04:42:21;101335.47;;;18.83;79.18
65329;BME280;51941;52.210;5.158;2022-08-03T04:44:50;101280.34;;;18.41;79.44
65329;BME280;51941;52.210;5.158;2022-08-03T04:47:19;101093.03;;;17.25;79.33
65329;BME280;51941;52.210;5.158;2022-08-03T04:49:46;101343.78;;;18.91;79.57
65329;BME280;51941;52.210;5.158;2022-08-03T04:52:13;101315.13;;;18.77;79.33
65329;BME280;51941;52.210;5.158;2022-08-03T04:54:41;101360.03;;;19.15;79.70
65329;BME280;51941;52.210;5.158;2022-08-03T04:57:09;101364.03;;;19.23;78.98
65329;BME280;51941;52.210;5.158;2022-08-03T04:59:36;101363.75;;;19.35;79.39
65329;BME280;51941;52.210;5.158;2022-08-03T05:02:04;101378.19;;;19.49;78.96
65329;BME280;51941;52.210;5.158;2022-08-03T05:04:31;101377.28;;;19.63;78.95
65329;BME280;51941;52.210;5.158;2022-08-03T05:06:59;101283.81;;;19.21;78.76
65329;BME280;51941;52.210;5.158;2022-08-03T05:09:26;101328.28;;;19.82;78.04
65329;BME280;51941;52.210;5.158;2022-08-03T05:11:53;101403.63;;;20.39;77.21
65329;BME280;51941;52.210;5.158;2022-08-03T05:14:20;101170.13;;;19.41;76.40
65329;BME280;51941;52.210;5.158;2022-08-03T05:16:47;101213.28;;;19.55;75.31
65329;BME280;51941;52.210;5.158;2022-08-03T05:19:15;101209.63;;;19.75;75.21
65329;BME280;51941;52.210;5.158;2022-08-03T05:21:42;101205.28;;;19.45;74.62
65329;BME280;51941;52.210;5.158;2022-08-03T05:24:08;101378.97;;;20.61;75.01
65329;BME280;51941;52.210;5.158;2022-08-03T05:26:35;101080.09;;;18.52;75.01
65329;BME280;51941;52.210;5.158;2022-08-03T05:29:02;101286.94;;;19.78;75.60
65329;BME280;51941;52.210;5.158;2022-08-03T05:31:29;101366.88;;;20.30;75.40
65329;BME280;51941;52.210;5.158;2022-08-03T05:33:56;101250.06;;;19.54;75.44
65329;BME280;51941;52.210;5.158;2022-08-03T05:36:25;101365.75;;;20.36;75.38
65329;BME280;51941;52.210;5.158;2022-08-03T05:38:51;101336.28;;;20.26;75.38
65329;BME280;51941;52.210;5.158;2022-08-03T05:41:18;101391.25;;;20.67;75.03
65329;BME280;51941;52.210;5.158;2022-08-03T05:43:46;101312.41;;;20.14;74.99
65329;BME280;51941;52.210;5.158;2022-08-03T05:46:13;101387.44;;;20.73;74.84
65329;BME280;51941;52.210;5.158;2022-08-03T05:48:40;101232.81;;;19.60;74.85
65329;BME280;51941;52.210;5.158;2022-08-03T05:51:07;101400.25;;;20.82;74.91
65329;BME280;51941;52.210;5.158;2022-08-03T05:53:36;101351.28;;;20.56;74.32
65329;BME280;51941;52.210;5.158;2022-08-03T05:56:04;101271.09;;;20.10;74.42
65329;BME280;51941;52.210;5.158;2022-08-03T05:58:31;101014.84;;;18.67;73.98
65329;BME280;51941;52.210;5.158;2022-08-03T06:00:58;101130.59;;;19.52;73.59
65329;BME280;51941;52.210;5.158;2022-08-03T06:03:25;101058.38;;;19.21;73.27
65329;BME280;51941;52.210;5.158;2022-08-03T06:05:52;101205.41;;;20.45;72.56
65329;BME280;51941;52.210;5.158;2022-08-03T06:08:20;101386.75;;;21.77;72.09
65329;BME280;51941;52.210;5.158;2022-08-03T06:10:48;101168.84;;;20.44;71.28
65329;BME280;51941;52.210;5.158;2022-08-03T06:13:15;101199.50;;;20.86;70.72
65329;BME280;51941;52.210;5.158;2022-08-03T06:15:42;101108.66;;;20.40;70.30
65329;BME280;51941;52.210;5.158;2022-08-03T06:18:09;101258.06;;;21.69;69.53
65329;BME280;51941;52.210;5.158;2022-08-03T06:20:35;101406.06;;;22.95;69.01
65329;BME280;51941;52.210;5.158;2022-08-03T06:23:02;101174.47;;;22.15;67.29
65329;BME280;51941;52.210;5.158;2022-08-03T06:25:29;101408.31;;;24.28;66.29
65329;BME280;51941;52.210;5.158;2022-08-03T06:27:57;101139.66;;;23.49;64.28
65329;BME280;51941;52.210;5.158;2022-08-03T06:30:25;101240.25;;;24.78;61.13
65329;BME280;51941;52.210;5.158;2022-08-03T06:32:51;101390.50;;;26.23;59.25
65329;BME280;51941;52.210;5.158;2022-08-03T06:35:19;101385.47;;;26.51;58.02
65329;BME280;51941;52.210;5.158;2022-08-03T06:37:47;101393.91;;;26.67;57.03
65329;BME280;51941;52.210;5.158;2022-08-03T06:40:16;101395.38;;;26.94;56.27
65329;BME280;51941;52.210;5.158;2022-08-03T06:42:43;101395.41;;;27.15;55.26
65329;BME280;51941;52.210;5.158;2022-08-03T06:45:11;101368.69;;;27.25;54.33
65329;BME280;51941;52.210;5.158;2022-08-03T06:47:38;101392.78;;;27.56;53.75
65329;BME280;51941;52.210;5.158;2022-08-03T06:50:07;101401.94;;;27.93;52.91
65329;BME280;51941;52.210;5.158;2022-08-03T06:52:35;101409.66;;;28.03;52.23
65329;BME280;51941;52.210;5.158;2022-08-03T06:55:02;101411.50;;;27.99;52.03
65329;BME280;51941;52.210;5.158;2022-08-03T06:57:29;101124.03;;;26.01;52.20
65329;BME280;51941;52.210;5.158;2022-08-03T06:59:56;101406.00;;;28.20;51.56
65329;BME280;51941;52.210;5.158;2022-08-03T07:02:28;101378.16;;;28.02;51.01
65329;BME280;51941;52.210;5.158;2022-08-03T07:04:55;101374.97;;;28.00;51.16
65329;BME280;51941;52.210;5.158;2022-08-03T07:07:22;101213.66;;;26.71;51.21
65329;BME280;51941;52.210;5.158;2022-08-03T07:09:49;101410.03;;;28.02;51.49
65329;BME280;51941;52.210;5.158;2022-08-03T07:12:16;101412.91;;;28.17;51.05
65329;BME280;51941;52.210;5.158;2022-08-03T07:14:43;101420.38;;;28.41;50.74
65329;BME280;51941;52.210;5.158;2022-08-03T07:17:10;101427.75;;;28.41;50.27
65329;BME280;51941;52.210;5.158;2022-08-03T07:19:38;101418.59;;;28.58;49.91
65329;BME280;51941;52.210;5.158;2022-08-03T07:22:05;101237.34;;;27.13;50.41
65329;BME280;51941;52.210;5.158;2022-08-03T07:24:33;101427.28;;;27.85;51.33
65329;BME280;51941;52.210;5.158;2022-08-03T07:27:00;101347.22;;;27.03;52.17
65329;BME280;51941;52.210;5.158;2022-08-03T07:29:27;101171.69;;;26.10;51.86
65329;BME280;51941;52.210;5.158;2022-08-03T07:31:54;101301.34;;;27.01;51.61
65329;BME280;51941;52.210;5.158;2022-08-03T07:34:21;101069.03;;;25.91;51.04
65329;BME280;51941;52.210;5.158;2022-08-03T07:36:49;101261.78;;;27.54;50.42
65329;BME280;51941;52.210;5.158;2022-08-03T07:39:16;101239.78;;;27.80;49.58
65329;BME280;51941;52.210;5.158;2022-08-03T07:41:43;101383.78;;;29.00;48.58
65329;BME280;51941;52.210;5.158;2022-08-03T07:44:10;101442.13;;;29.59;48.00
65329;BME280;51941;52.210;5.158;2022-08-03T07:46:38;101341.16;;;29.19;47.51
65329;BME280;51941;52.210;5.158;2022-08-03T07:49:06;101304.38;;;29.13;47.00
65329;BME280;51941;52.210;5.158;2022-08-03T07:51:34;101450.28;;;30.12;46.87
65329;BME280;51941;52.210;5.158;2022-08-03T07:54:03;101088.66;;;27.95;45.97
65329;BME280;51941;52.210;5.158;2022-08-03T07:56:32;101308.88;;;29.34;46.82
65329;BME280;51941;52.210;5.158;2022-08-03T07:58:59;101461.53;;;30.38;45.94
65329;BME280;51941;52.210;5.158;2022-08-03T08:01:28;101143.16;;;28.59;45.89
65329;BME280;51941;52.210;5.158;2022-08-03T08:03:59;101145.81;;;28.19;45.77
65329;BME280;51941;52.210;5.158;2022-08-03T08:06:26;101141.72;;;28.25;45.36
65329;BME280;51941;52.210;5.158;2022-08-03T08:08:56;101250.47;;;28.95;45.69
65329;BME280;51941;52.210;5.158;2022-08-03T08:11:28;101361.63;;;29.65;45.75
65329;BME280;51941;52.210;5.158;2022-08-03T08:13:55;101461.28;;;30.43;45.47
65329;BME280;51941;52.210;5.158;2022-08-03T08:16:22;101306.53;;;29.60;44.84
65329;BME280;51941;52.210;5.158;2022-08-03T08:18:49;101466.63;;;30.67;44.94
65329;BME280;51941;52.210;5.158;2022-08-03T08:21:16;101461.88;;;30.80;44.46
65329;BME280;51941;52.210;5.158;2022-08-03T08:23:44;101424.66;;;30.75;44.44
65329;BME280;51941;52.210;5.158;2022-08-03T08:26:11;101451.28;;;31.26;43.66
65329;BME280;51941;52.210;5.158;2022-08-03T08:28:40;101360.63;;;30.61;43.62
65329;BME280;51941;52.210;5.158;2022-08-03T08:31:07;101420.31;;;31.22;43.02
65329;BME280;51941;52.210;5.158;2022-08-03T08:33:33;101371.47;;;30.89;42.85
65329;BME280;51941;52.210;5.158;2022-08-03T08:36:01;101366.09;;;30.76;43.48
65329;BME280;51941;52.210;5.158;2022-08-03T08:38:28;101459.72;;;31.36;43.04
65329;BME280;51941;52.210;5.158;2022-08-03T08:40:55;101319.84;;;30.21;44.06
65329;BME280;51941;52.210;5.158;2022-08-03T08:43:22;101267.47;;;29.87;43.88
65329;BME280;51941;52.210;5.158;2022-08-03T08:45:51;101327.22;;;30.04;44.30
65329;BME280;51941;52.210;5.158;2022-08-03T08:48:23;101113.69;;;28.25;45.08
65329;BME280;51941;52.210;5.158;2022-08-03T08:50:52;101459.03;;;30.05;45.56
65329;BME280;51941;52.210;5.158;2022-08-03T08:53:20;101452.34;;;29.62;46.31
65329;BME280;51941;52.210;5.158;2022-08-03T08:55:49;101105.59;;;26.98;47.24
65329;BME280;51941;52.210;5.158;2022-08-03T08:58:18;101125.69;;;26.43;48.77
65329;BME280;51941;52.210;5.158;2022-08-03T09:00:52;101111.66;;;25.91;49.47
65329;BME280;51941;52.210;5.158;2022-08-03T09:03:19;101104.06;;;25.67;50.00
65329;BME280;51941;52.210;5.158;2022-08-03T09:05:47;101207.09;;;26.52;50.00
65329;BME280;51941;52.210;5.158;2022-08-03T09:08:14;101453.44;;;27.98;50.07
65329;BME280;51941;52.210;5.158;2022-08-03T09:10:42;101414.66;;;27.60;50.46
65329;BME280;51941;52.210;5.158;2022-08-03T09:13:09;101311.84;;;26.82;50.71
65329;BME280;51941;52.210;5.158;2022-08-03T09:15:41;101445.44;;;27.72;51.32
65329;BME280;51941;52.210;5.158;2022-08-03T09:18:12;101060.41;;;24.96;51.94
65329;BME280;51941;52.210;5.158;2022-08-03T09:20:39;101411.41;;;27.16;52.03
65329;BME280;51941;52.210;5.158;2022-08-03T09:23:07;101083.50;;;25.11;52.04
65329;BME280;51941;52.210;5.158;2022-08-03T09:25:37;101293.94;;;26.60;51.84
65329;BME280;51941;52.210;5.158;2022-08-03T09:28:08;101071.56;;;25.03;51.04
65329;BME280;51941;52.210;5.158;2022-08-03T09:30:38;101101.81;;;25.05;51.78
65329;BME280;51941;52.210;5.158;2022-08-03T09:33:07;101073.50;;;24.85;51.88
65329;BME280;51941;52.210;5.158;2022-08-03T09:35:42;101080.06;;;24.67;52.23
65329;BME280;51941;52.210;5.158;2022-08-03T09:38:12;101080.50;;;24.78;52.67
65329;BME280;51941;52.210;5.158;2022-08-03T09:40:41;101121.59;;;24.97;52.65
65329;BME280;51941;52.210;5.158;2022-08-03T09:43:09;101276.91;;;25.96;52.17
65329;BME280;51941;52.210;5.158;2022-08-03T09:45:39;101101.50;;;25.07;51.73
65329;BME280;51941;52.210;5.158;2022-08-03T09:48:22;101082.06;;;24.96;51.80
65329;BME280;51941;52.210;5.158;2022-08-03T09:50:53;101250.59;;;25.96;52.11
65329;BME280;51941;52.210;5.158;2022-08-03T09:53:20;101417.94;;;27.24;51.85
65329;BME280;51941;52.210;5.158;2022-08-03T09:55:53;101165.47;;;25.72;51.39
65329;BME280;51941;52.210;5.158;2022-08-03T09:58:23;101220.19;;;26.50;50.92
65329;BME280;51941;52.210;5.158;2022-08-03T10:00:57;101075.00;;;25.76;50.04
65329;BME280;51941;52.210;5.158;2022-08-03T10:03:28;101082.47;;;25.79;49.98
65329;BME280;51941;52.210;5.158;2022-08-03T10:05:57;101203.03;;;26.87;49.64
65329;BME280;51941;52.210;5.158;2022-08-03T10:08:25;101289.25;;;27.40;49.33
65329;BME280;51941;52.210;5.158;2022-08-03T10:10:52;101294.22;;;27.18;49.06
65329;BME280;51941;52.210;5.158;2022-08-03T10:13:24;101398.75;;;27.91;48.97
65329;BME280;51941;52.210;5.158;2022-08-03T10:15:51;101220.78;;;26.85;49.38
65329;BME280;51941;52.210;5.158;2022-08-03T10:18:18;101099.13;;;26.07;49.25
65329;BME280;51941;52.210;5.158;2022-08-03T10:20:51;101396.38;;;27.90;48.90
65329;BME280;51941;52.210;5.158;2022-08-03T10:23:20;101081.41;;;26.01;48.71
65329;BME280;51941;52.210;5.158;2022-08-03T10:25:52;101083.38;;;25.92;48.84
65329;BME280;51941;52.210;5.158;2022-08-03T10:28:21;101064.47;;;25.75;48.70
65329;BME280;51941;52.210;5.158;2022-08-03T10:30:51;101366.09;;;27.91;48.37
65329;BME280;51941;52.210;5.158;2022-08-03T10:33:20;101449.34;;;28.46;48.49
65329;BME280;51941;52.210;5.158;2022-08-03T10:35:51;101376.38;;;27.86;48.80
65329;BME280;51941;52.210;5.158;2022-08-03T10:38:24;101103.75;;;26.07;48.73
65329;BME280;51941;52.210;5.158;2022-08-03T10:40:55;101299.06;;;27.33;48.05
65329;BME280;51941;52.210;5.158;2022-08-03T10:43:28;101431.31;;;28.33;47.96
65329;BME280;51941;52.210;5.158;2022-08-03T10:46:00;101364.31;;;27.74;47.91
65329;BME280;51941;52.210;5.158;2022-08-03T10:48:29;101192.84;;;26.55;47.99
65329;BME280;51941;52.210;5.158;2022-08-03T10:50:56;101361.06;;;27.60;48.62
65329;BME280;51941;52.210;5.158;2022-08-03T10:53:36;101434.59;;;28.26;47.85
65329;BME280;51941;52.210;5.158;2022-08-03T10:56:04;101306.66;;;27.60;47.85
65329;BME280;51941;52.210;5.158;2022-08-03T10:58:50;101336.63;;;27.93;47.37
65329;BME280;51941;52.210;5.158;2022-08-03T11:04:14;101102.38;;;26.42;47.09
65329;BME280;51941;52.210;5.158;2022-08-03T11:06:43;101429.63;;;28.61;46.64
65329;BME280;51941;52.210;5.158;2022-08-03T11:09:18;101269.31;;;27.36;46.51
65329;BME280;51941;52.210;5.158;2022-08-03T11:11:47;101061.94;;;26.08;46.63
65329;BME280;51941;52.210;5.158;2022-08-03T11:14:16;101329.19;;;28.02;46.95
65329;BME280;51941;52.210;5.158;2022-08-03T11:16:46;101252.66;;;27.38;46.88
65329;BME280;51941;52.210;5.158;2022-08-03T11:19:15;101433.47;;;28.60;46.92
65329;BME280;51941;52.210;5.158;2022-08-03T11:21:53;101081.16;;;26.44;46.54
65329;BME280;51941;52.210;5.158;2022-08-03T11:25:02;101080.88;;;26.58;45.54
65329;BME280;51941;52.210;5.158;2022-08-03T11:27:32;101029.56;;;26.23;46.45
65329;BME280;51941;52.210;5.158;2022-08-03T11:30:06;101427.47;;;28.79;46.35
65329;BME280;51941;52.210;5.158;2022-08-03T11:33:06;101285.94;;;27.89;46.47
65329;BME280;51941;52.210;5.158;2022-08-03T11:35:34;101028.84;;;26.14;46.53
65329;BME280;51941;52.210;5.158;2022-08-03T11:38:03;101061.66;;;26.42;46.85
65329;BME280;51941;52.210;5.158;2022-08-03T11:40:36;101432.28;;;28.94;46.11
65329;BME280;51941;52.210;5.158;2022-08-03T11:43:07;101437.34;;;28.83;45.98
65329;BME280;51941;52.210;5.158;2022-08-03T11:45:36;101153.13;;;26.92;46.24
65329;BME280;51941;52.210;5.158;2022-08-03T11:48:36;101424.41;;;28.80;46.47
65329;BME280;51941;52.210;5.158;2022-08-03T11:51:23;101389.31;;;28.54;45.88
65329;BME280;51941;52.210;5.158;2022-08-03T11:54:00;101429.50;;;28.82;45.98
65329;BME280;51941;52.210;5.158;2022-08-03T11:56:43;101032.78;;;26.38;45.06
65329;BME280;51941;52.210;5.158;2022-08-03T11:59:15;101040.53;;;26.27;45.73
65329;BME280;51941;52.210;5.158;2022-08-03T12:01:43;101300.81;;;28.03;45.68
65329;BME280;51941;52.210;5.158;2022-08-03T12:04:10;101038.22;;;26.38;45.00
65329;BME280;51941;52.210;5.158;2022-08-03T12:06:38;101272.81;;;28.03;45.04
65329;BME280;51941;52.210;5.158;2022-08-03T12:20:00;101240.28;;;28.18;42.69
65329;BME280;51941;52.210;5.158;2022-08-03T12:22:32;101104.84;;;27.42;42.36
65329;BME280;51941;52.210;5.158;2022-08-03T12:25:00;101107.56;;;27.42;42.13
65329;BME280;51941;52.210;5.158;2022-08-03T12:27:31;101097.56;;;27.22;42.33
65329;BME280;51941;52.210;5.158;2022-08-03T12:30:00;101106.31;;;27.40;42.25
65329;BME280;51941;52.210;5.158;2022-08-03T12:32:31;101272.88;;;28.64;42.26
65329;BME280;51941;52.210;5.158;2022-08-03T12:35:01;101111.88;;;27.56;42.18
65329;BME280;51941;52.210;5.158;2022-08-03T12:37:32;101105.78;;;27.71;41.92
65329;BME280;51941;52.210;5.158;2022-08-03T12:40:02;101079.25;;;27.56;41.72
65329;BME280;51941;52.210;5.158;2022-08-03T12:42:32;101103.44;;;27.81;41.52
65329;BME280;51941;52.210;5.158;2022-08-03T12:44:59;101113.38;;;27.77;41.51
65329;BME280;51941;52.210;5.158;2022-08-03T12:47:26;101430.47;;;29.87;41.36
65329;BME280;51941;52.210;5.158;2022-08-03T12:49:53;101098.41;;;27.71;41.51
65329;BME280;51941;52.210;5.158;2022-08-03T12:52:23;101068.38;;;27.56;41.94
65329;BME280;51941;52.210;5.158;2022-08-03T12:54:55;101434.91;;;29.79;41.54
65329;BME280;51941;52.210;5.158;2022-08-03T12:57:23;101100.13;;;27.76;42.15
65329;BME280;51941;52.210;5.158;2022-08-03T12:59:50;101069.75;;;27.74;42.41
65329;BME280;51941;52.210;5.158;2022-08-03T13:02:22;101255.44;;;29.05;42.22
65329;BME280;51941;52.210;5.158;2022-08-03T13:04:50;101306.88;;;29.58;41.97
65329;BME280;51941;52.210;5.158;2022-08-03T13:07:19;101409.81;;;30.29;42.03
65329;BME280;51941;52.210;5.158;2022-08-03T13:09:49;101081.72;;;28.22;41.60
65329;BME280;51941;52.210;5.158;2022-08-03T13:12:19;101267.97;;;29.61;41.55
65329;BME280;51941;52.210;5.158;2022-08-03T13:14:50;101057.75;;;28.39;41.95